createdAt,value
2022-09-12T00:05:11.762Z,86.20
2022-09-12T00:13:17.173Z,85.60
2022-09-12T00:21:26.018Z,84.80
2022-09-12T00:29:31.357Z,84.10
2022-09-12T00:37:39.425Z,84.40
2022-09-12T00:45:45.381Z,84.40
2022-09-12T00:53:56.689Z,84.90
2022-09-12T01:02:02.138Z,85.60
2022-09-12T01:10:12.436Z,85.50
2022-09-12T01:18:28.121Z,85.20
2022-09-12T01:27:05.738Z,84.80
2022-09-12T01:35:23.124Z,84.40
2022-09-12T01:43:37.960Z,84.40
2022-09-12T01:51:49.799Z,84.50
2022-09-12T01:59:59.776Z,85.00
2022-09-12T02:08:12.277Z,84.70
2022-09-12T02:16:22.231Z,84.80
2022-09-12T02:24:34.458Z,84.80
2022-09-12T02:32:44.602Z,85.20
2022-09-12T02:40:52.492Z,85.00
2022-09-12T02:48:58.906Z,85.40
2022-09-12T02:57:08.804Z,85.60
2022-09-12T03:05:35.060Z,85.70
2022-09-12T03:13:56.223Z,85.70
2022-09-12T03:22:11.276Z,85.70
2022-09-12T03:30:19.349Z,86.10
2022-09-12T03:38:24.683Z,87.00
2022-09-12T03:46:32.500Z,87.70
2022-09-12T03:54:37.838Z,88.60
2022-09-12T04:02:45.854Z,88.10
2022-09-12T04:10:51.106Z,87.70
2022-09-12T04:18:59.452Z,87.90
2022-09-12T04:27:07.703Z,87.70
2022-09-12T04:35:15.770Z,87.50
2022-09-12T04:43:21.180Z,86.70
2022-09-12T04:51:31.142Z,86.00
2022-09-12T04:59:36.508Z,85.30
2022-09-12T05:07:44.473Z,85.00
2022-09-12T05:16:00.318Z,85.40
2022-09-12T05:24:08.884Z,85.30
2022-09-12T05:32:14.191Z,85.90
2022-09-12T05:40:22.114Z,85.90
2022-09-12T05:48:28.669Z,85.70
2022-09-12T05:56:40.078Z,85.50
2022-09-12T06:04:45.956Z,85.30
2022-09-12T06:12:54.058Z,86.20
2022-09-12T06:20:59.296Z,87.60
2022-09-12T06:29:07.859Z,88.90
2022-09-12T06:37:13.171Z,90.00
2022-09-12T06:45:21.546Z,90.10
2022-09-12T06:53:27.552Z,90.00
2022-09-12T07:01:35.530Z,89.90
2022-09-12T07:09:40.856Z,89.70
2022-09-12T07:17:48.778Z,89.20
2022-09-12T07:25:57.316Z,88.80
2022-09-12T07:34:08.193Z,88.50
2022-09-12T07:42:13.823Z,87.70
2022-09-12T07:50:21.755Z,86.70
2022-09-12T07:58:27.483Z,84.20
2022-09-12T08:06:37.270Z,82.40
2022-09-12T08:14:42.528Z,82.50
2022-09-12T08:22:50.559Z,83.30
2022-09-12T08:30:56.369Z,84.20
2022-09-12T08:39:08.103Z,86.10
2022-09-12T08:47:28.292Z,87.20
2022-09-12T08:55:38.683Z,86.50
2022-09-12T09:04:18.105Z,86.20
2022-09-12T09:12:32.043Z,86.80
2022-09-12T09:20:43.767Z,85.30
2022-09-12T09:28:55.776Z,84.70
2022-09-12T09:37:11.723Z,84.90
2022-09-12T09:45:25.318Z,84.50
2022-09-12T09:53:38.309Z,86.70
2022-09-12T10:01:55.919Z,87.50
2022-09-12T10:10:10.095Z,86.70
2022-09-12T10:18:37.127Z,85.70
2022-09-12T10:26:44.921Z,86.00
2022-09-12T10:34:57.106Z,84.80
2022-09-12T10:43:03.306Z,83.80
2022-09-12T10:51:29.188Z,84.40
2022-09-12T10:59:43.770Z,83.80
2022-09-12T11:07:56.826Z,83.20
2022-09-12T11:16:15.731Z,83.20
2022-09-12T11:24:46.273Z,79.60
2022-09-12T11:33:23.531Z,75.20
2022-09-12T11:41:34.742Z,62.80
2022-09-12T11:49:43.352Z,55.70
2022-09-12T11:57:57.171Z,54.90
2022-09-12T12:06:07.168Z,58.70
2022-09-12T12:14:22.947Z,54.80
2022-09-12T12:22:29.023Z,42.00
2022-09-12T12:31:05.820Z,40.40
2022-09-12T12:39:54.069Z,48.70
2022-09-12T12:48:11.070Z,54.20
2022-09-12T12:56:37.082Z,58.20
2022-09-12T13:04:49.207Z,61.90
2022-09-12T13:12:56.822Z,66.60
2022-09-12T13:21:13.866Z,68.70
2022-09-12T13:29:20.863Z,71.50
2022-09-12T13:37:43.237Z,71.40
2022-09-12T13:45:50.903Z,74.20
2022-09-12T13:54:02.162Z,75.60
2022-09-12T14:02:21.758Z,74.90
2022-09-12T14:10:36.509Z,76.10
2022-09-12T14:18:45.195Z,73.60
2022-09-12T14:26:56.792Z,71.80
2022-09-12T14:35:22.508Z,81.40
2022-09-12T14:43:32.765Z,91.10
2022-09-12T14:51:40.997Z,91.00
2022-09-12T14:59:49.223Z,88.80
2022-09-12T15:08:02.864Z,90.20
2022-09-12T15:16:13.346Z,89.60
2022-09-12T15:24:18.696Z,89.20
2022-09-12T15:32:30.237Z,88.20
2022-09-12T15:40:35.525Z,88.80
2022-09-12T15:48:43.573Z,87.70
2022-09-12T15:56:48.834Z,87.80
2022-09-12T16:04:56.807Z,87.70
2022-09-12T16:13:04.417Z,86.90
2022-09-12T16:21:15.265Z,86.90
2022-09-12T16:29:20.983Z,86.10
2022-09-12T16:37:28.898Z,86.30
2022-09-12T16:45:34.194Z,87.10
2022-09-12T16:53:42.247Z,87.60
2022-09-12T17:01:48.425Z,87.90
2022-09-12T17:09:57.192Z,87.70
2022-09-12T17:18:02.503Z,87.90
2022-09-12T17:26:12.145Z,88.50
2022-09-12T17:34:17.977Z,88.40
2022-09-12T17:42:25.853Z,88.30
2022-09-12T17:50:32.474Z,88.40
2022-09-12T17:58:41.940Z,90.00
2022-09-12T18:06:49.272Z,90.30
2022-09-12T18:14:57.142Z,90.50
2022-09-12T18:23:02.931Z,90.40
2022-09-12T18:31:15.588Z,89.80
2022-09-12T18:39:25.434Z,88.90
2022-09-12T18:47:35.473Z,89.50
2022-09-12T18:55:40.743Z,90.20
2022-09-12T19:03:49.526Z,90.50
2022-09-12T19:11:54.885Z,91.00
2022-09-12T19:20:02.778Z,91.00
2022-09-12T19:28:08.076Z,90.90
2022-09-12T19:36:41.299Z,91.10
2022-09-12T19:44:43.214Z,91.00
2022-09-12T19:52:51.167Z,91.00
2022-09-12T20:00:56.441Z,90.80
2022-09-12T20:09:04.312Z,90.90
2022-09-12T20:17:09.928Z,90.90
2022-09-12T20:25:18.277Z,90.90
2022-09-12T20:33:23.577Z,91.00
2022-09-12T20:41:33.094Z,91.40
2022-09-12T20:49:38.311Z,91.70
2022-09-12T20:57:46.186Z,91.50
2022-09-12T21:05:51.501Z,91.60
2022-09-12T21:13:59.904Z,91.70
2022-09-12T21:22:05.286Z,91.30
2022-09-12T21:30:14.590Z,91.20
2022-09-12T21:38:20.686Z,91.10
2022-09-12T21:46:28.681Z,90.90
2022-09-12T21:54:35.183Z,90.70
2022-09-12T22:02:43.409Z,90.60
2022-09-12T22:10:48.652Z,90.40
2022-09-12T22:18:56.902Z,90.30
2022-09-12T22:27:05.198Z,90.10
2022-09-12T22:35:13.156Z,89.70
2022-09-12T22:43:18.417Z,90.00
2022-09-12T22:51:27.023Z,90.20
2022-09-12T22:59:32.377Z,90.10
2022-09-12T23:07:40.252Z,90.00
2022-09-12T23:15:45.562Z,90.20
2022-09-12T23:23:53.845Z,90.20
2022-09-12T23:31:59.249Z,90.40
2022-09-12T23:40:09.084Z,90.30
2022-09-12T23:48:14.404Z,90.30
2022-09-12T23:56:22.424Z,90.30
